Time;durP1;ratioP1;P1;durP2;ratioP2;P2;SDS_P1;SDS_P2;PMS_P1;PMS_P2;Temp;Humidity;BMP_temperature;BMP_pressure;BME280_temperature;BME280_humidity;BME280_pressure;Samples;Min_cycle;Max_cycle;Signal;HPM_P1;HPM_P2
2023/04/16 00:02:21;;;;;;;5.25;1.27;;;9.30;99.90;;;;;;5074784;28;20036;-73
2023/04/16 00:04:47;;;;;;;2.70;0.75;;;9.30;99.90;;;;;;5075558;28;20082;-73
2023/04/16 00:07:13;;;;;;;1.02;0.30;;;9.30;99.90;;;;;;5075586;28;20059;-72
2023/04/16 00:09:38;;;;;;;1.92;0.22;;;9.30;99.90;;;;;;5075853;28;20050;-73
2023/04/16 00:12:05;;;;;;;0.28;0.28;;;9.40;99.90;;;;;;5075431;28;20043;-73
2023/04/16 00:14:31;;;;;;;0.10;0.10;;;9.30;99.90;;;;;;5075248;28;20021;-73
2023/04/16 00:16:56;;;;;;;0.32;0.32;;;9.40;99.90;;;;;;5074909;28;20393;-73
2023/04/16 00:19:22;;;;;;;4.70;0.65;;;9.40;99.90;;;;;;5075155;28;20025;-73
2023/04/16 00:21:48;;;;;;;0.13;0.13;;;9.40;99.90;;;;;;5075161;28;20115;-72
2023/04/16 00:24:13;;;;;;;0.10;0.10;;;9.60;99.90;;;;;;5075107;28;20020;-72
2023/04/16 00:26:39;;;;;;;0.20;0.20;;;9.60;99.90;;;;;;5075047;28;20032;-72
2023/04/16 00:29:06;;;;;;;0.50;0.50;;;9.60;99.90;;;;;;5057198;28;20025;-72
2023/04/16 00:31:32;;;;;;;0.10;0.10;;;9.70;99.90;;;;;;5074484;28;20040;-72
2023/04/16 00:33:58;;;;;;;0.25;0.25;;;9.70;99.90;;;;;;5075077;28;20021;-73
2023/04/16 00:36:28;;;;;;;0.20;0.20;;;9.50;99.90;;;;;;5056960;28;20051;-72
2023/04/16 00:38:55;;;;;;;0.30;0.30;;;9.50;99.90;;;;;;5058010;28;20039;-73
2023/04/16 00:41:25;;;;;;;0.45;0.45;;;9.60;99.90;;;;;;5074644;28;20040;-73
2023/04/16 00:43:51;;;;;;;0.28;0.28;;;9.60;99.90;;;;;;5075015;28;20107;-73
2023/04/16 00:46:19;;;;;;;0.50;0.50;;;9.50;99.90;;;;;;5074304;28;20158;-73
2023/04/16 00:48:46;;;;;;;0.20;0.20;;;9.50;99.90;;;;;;5073441;28;20021;-73
2023/04/16 00:51:12;;;;;;;2.92;0.32;;;9.70;99.90;;;;;;5072802;28;20036;-73
2023/04/16 00:53:38;;;;;;;0.10;0.10;;;9.70;99.90;;;;;;5074604;28;20035;-73
2023/04/16 00:56:06;;;;;;;0.10;0.10;;;9.70;99.90;;;;;;5074803;28;20056;-73
2023/04/16 00:58:33;;;;;;;0.10;0.10;;;9.70;99.90;;;;;;5074554;28;20429;-73
2023/04/16 01:01:00;;;;;;;1.92;1.10;;;9.70;99.90;;;;;;5072927;28;20040;-73
2023/04/16 01:03:46;;;;;;;0.20;0.20;;;10.00;99.90;;;;;;5073158;28;20042;-73
2023/04/16 01:06:13;;;;;;;1.67;0.43;;;10.00;99.90;;;;;;5074416;28;20028;-73
2023/04/16 01:08:39;;;;;;;0.98;0.88;;;9.80;99.90;;;;;;5072969;28;20040;-73
2023/04/16 01:11:05;;;;;;;0.20;0.20;;;9.80;99.90;;;;;;5073102;28;20025;-73
2023/04/16 01:13:32;;;;;;;0.28;0.28;;;9.60;99.90;;;;;;5074205;28;20099;-73
2023/04/16 01:15:58;;;;;;;0.30;0.30;;;9.60;99.90;;;;;;5053966;28;20116;-73
2023/04/16 01:18:25;;;;;;;1.17;0.52;;;9.50;99.90;;;;;;5052429;28;20079;-73
2023/04/16 01:20:51;;;;;;;2.15;2.00;;;9.40;99.90;;;;;;5049235;28;20152;-73
2023/04/16 01:23:20;;;;;;;0.20;0.20;;;9.50;99.90;;;;;;5052337;28;20412;-73
2023/04/16 01:25:46;;;;;;;0.77;0.25;;;9.50;99.90;;;;;;5052612;28;20534;-72
2023/04/16 01:28:12;;;;;;;0.15;0.15;;;9.30;99.90;;;;;;5054067;28;20055;-73
2023/04/16 01:30:37;;;;;;;0.10;0.10;;;9.30;99.90;;;;;;5053702;28;20466;-73
2023/04/16 01:33:28;;;;;;;0.10;0.10;;;9.60;99.90;;;;;;5053670;28;20025;-73
2023/04/16 01:35:53;;;;;;;1.38;0.35;;;9.70;99.90;;;;;;5049167;28;20026;-73
2023/04/16 01:38:19;;;;;;;0.20;0.20;;;9.70;99.90;;;;;;5042329;28;20409;-73
2023/04/16 01:40:45;;;;;;;0.20;0.20;;;9.60;99.90;;;;;;5053616;28;20048;-73
2023/04/16 01:43:11;;;;;;;0.30;0.30;;;9.70;99.90;;;;;;5053693;28;20055;-72
2023/04/16 01:45:36;;;;;;;0.40;0.40;;;9.60;99.90;;;;;;5048670;28;20541;-72
2023/04/16 01:48:03;;;;;;;0.20;0.20;;;9.60;99.90;;;;;;5048805;28;20401;-73
2023/04/16 01:50:29;;;;;;;0.17;0.17;;;9.50;99.90;;;;;;5041057;28;20148;-73
2023/04/16 01:52:55;;;;;;;0.25;0.25;;;9.60;99.90;;;;;;5051150;28;20033;-73
2023/04/16 01:55:21;;;;;;;1.35;0.57;;;9.50;99.90;;;;;;5053640;28;20036;-72
2023/04/16 01:57:47;;;;;;;0.47;0.47;;;9.40;99.90;;;;;;5052963;28;20108;-73
2023/04/16 02:00:13;;;;;;;1.08;0.98;;;9.50;99.90;;;;;;5048404;28;20068;-73
2023/04/16 02:02:45;;;;;;;0.55;0.55;;;9.50;99.90;;;;;;5047817;28;20112;-73
2023/04/16 02:05:16;;;;;;;0.35;0.35;;;9.30;99.90;;;;;;5048910;28;20116;-73
2023/04/16 02:07:41;;;;;;;0.50;0.50;;;9.60;99.90;;;;;;5051797;28;20120;-73
2023/04/16 02:10:09;;;;;;;0.43;0.43;;;9.70;99.90;;;;;;5048214;28;20018;-73
2023/04/16 02:12:37;;;;;;;1.85;0.85;;;9.70;99.90;;;;;;5040416;28;20034;-73
2023/04/16 02:15:03;;;;;;;0.30;0.30;;;9.70;99.90;;;;;;5046434;28;20417;-73
2023/04/16 02:17:29;;;;;;;0.10;0.10;;;9.70;99.90;;;;;;5051967;28;20047;-73
2023/04/16 02:20:09;;;;;;;0.47;0.47;;;9.80;99.90;;;;;;5051575;28;20017;-73
2023/04/16 02:22:41;;;;;;;0.35;0.35;;;9.70;99.90;;;;;;5032534;28;20042;-73
2023/04/16 02:25:07;;;;;;;0.20;0.20;;;9.60;99.90;;;;;;5063537;28;20087;-73
2023/04/16 02:27:35;;;;;;;0.68;0.30;;;9.60;99.90;;;;;;5051421;28;20029;-73
2023/04/16 02:30:13;;;;;;;0.30;0.30;;;9.60;99.90;;;;;;5051475;28;20029;-73
2023/04/16 02:32:39;;;;;;;0.55;0.55;;;9.50;99.90;;;;;;5048192;28;20489;-73
2023/04/16 02:35:06;;;;;;;0.28;0.28;;;9.50;99.90;;;;;;5045506;28;20385;-73
2023/04/16 02:37:32;;;;;;;0.17;0.17;;;9.60;99.90;;;;;;5048201;28;20120;-72
2023/04/16 02:39:58;;;;;;;0.52;0.40;;;9.60;99.90;;;;;;5039971;28;20112;-73
2023/04/16 02:42:23;;;;;;;0.35;0.35;;;9.70;99.90;;;;;;5050654;28;20116;-73
2023/04/16 02:44:49;;;;;;;0.43;0.43;;;9.70;99.90;;;;;;5048026;28;20033;-73
2023/04/16 02:47:15;;;;;;;16.63;1.33;;;9.70;99.90;;;;;;5048904;28;20029;-73
2023/04/16 02:49:41;;;;;;;0.10;0.10;;;9.50;99.90;;;;;;5047985;28;20029;-73
2023/04/16 02:52:07;;;;;;;0.30;0.30;;;9.40;99.90;;;;;;5046883;28;20046;-73
2023/04/16 02:54:32;;;;;;;0.90;0.57;;;9.40;99.90;;;;;;5051250;28;20796;-73
2023/04/16 02:56:58;;;;;;;2.17;1.58;;;9.60;99.90;;;;;;5047778;28;20033;-73
2023/04/16 02:59:24;;;;;;;0.10;0.10;;;9.40;99.90;;;;;;5032734;28;20086;-73
2023/04/16 03:01:50;;;;;;;0.50;0.50;;;9.50;99.90;;;;;;5052434;28;20025;-73
2023/04/16 03:04:16;;;;;;;0.10;0.10;;;9.50;99.90;;;;;;5049808;28;20032;-73
2023/04/16 03:06:41;;;;;;;0.10;0.10;;;9.60;99.90;;;;;;5047665;28;20470;-73
2023/04/16 03:09:07;;;;;;;0.68;0.60;;;9.70;99.90;;;;;;5031266;28;20022;-73
2023/04/16 03:11:33;;;;;;;0.30;0.30;;;9.40;99.90;;;;;;5052114;28;20488;-73
2023/04/16 03:13:59;;;;;;;0.10;0.10;;;9.50;99.90;;;;;;5050770;28;20124;-73
2023/04/16 03:16:25;;;;;;;0.30;0.30;;;9.50;99.90;;;;;;5049807;28;20017;-73
2023/04/16 03:18:50;;;;;;;0.88;0.47;;;9.50;99.90;;;;;;5052032;28;20033;-73
2023/04/16 03:21:16;;;;;;;1.65;0.85;;;9.50;99.90;;;;;;5049731;28;20508;-73
2023/04/16 03:23:42;;;;;;;0.50;0.45;;;9.50;99.90;;;;;;5051655;28;20107;-73
2023/04/16 03:26:08;;;;;;;0.20;0.20;;;9.50;99.90;;;;;;5041596;28;20056;-73
2023/04/16 03:28:34;;;;;;;3.17;0.75;;;9.50;99.90;;;;;;5053807;28;20029;-73
2023/04/16 03:31:00;;;;;;;0.40;0.40;;;9.60;99.90;;;;;;5051672;28;20037;-73
2023/04/16 03:33:25;;;;;;;1.75;0.47;;;9.70;99.90;;;;;;5050468;28;20469;-73
2023/04/16 03:35:58;;;;;;;4.65;1.75;;;9.70;99.90;;;;;;5051405;28;20084;-73
2023/04/16 03:38:26;;;;;;;0.10;0.10;;;9.50;99.90;;;;;;5044772;28;20045;-73
2023/04/16 03:40:54;;;;;;;0.57;0.57;;;9.50;99.90;;;;;;5055443;28;20393;-73
2023/04/16 03:43:20;;;;;;;0.15;0.15;;;9.50;99.90;;;;;;5034721;28;20024;-73
2023/04/16 03:45:46;;;;;;;0.32;0.32;;;9.40;99.90;;;;;;5036070;28;20032;-73
2023/04/16 03:48:12;;;;;;;0.20;0.20;;;9.50;99.90;;;;;;5055843;28;20055;-73
2023/04/16 03:50:38;;;;;;;0.95;0.95;;;9.70;99.90;;;;;;5055404;28;20052;-73
2023/04/16 03:53:06;;;;;;;2.22;0.90;;;9.60;99.90;;;;;;5034515;28;20076;-73
2023/04/16 03:55:34;;;;;;;1.13;0.38;;;9.60;99.90;;;;;;5031980;28;20039;-73
2023/04/16 03:58:01;;;;;;;0.77;0.77;;;9.60;99.90;;;;;;5034238;28;20042;-73
2023/04/16 04:00:29;;;;;;;0.20;0.20;;;9.60;99.90;;;;;;5037598;28;20029;-73
2023/04/16 04:03:02;;;;;;;1.55;0.65;;;9.60;99.90;;;;;;5055327;28;20032;-73
2023/04/16 04:05:28;;;;;;;0.20;0.20;;;9.50;99.90;;;;;;5055686;28;20025;-73
2023/04/16 04:07:54;;;;;;;0.10;0.10;;;9.50;99.90;;;;;;5055327;28;20020;-73
2023/04/16 04:10:20;;;;;;;0.38;0.38;;;9.50;99.90;;;;;;5034212;28;20509;-73
2023/04/16 04:12:46;;;;;;;0.05;0.05;;;9.60;99.90;;;;;;5037237;28;20029;-73
2023/04/16 04:15:12;;;;;;;1.50;0.93;;;9.50;99.90;;;;;;5055093;28;20032;-72
2023/04/16 04:17:37;;;;;;;0.20;0.20;;;9.50;99.90;;;;;;5036471;28;20121;-73
2023/04/16 04:20:03;;;;;;;0.20;0.20;;;9.50;99.90;;;;;;5034040;28;20470;-72
2023/04/16 04:22:30;;;;;;;0.10;0.10;;;9.40;99.90;;;;;;5029748;28;20052;-72
2023/04/16 04:24:56;;;;;;;0.10;0.10;;;9.50;99.90;;;;;;5033135;28;20033;-72
2023/04/16 04:27:22;;;;;;;0.45;0.40;;;9.50;99.90;;;;;;5033768;28;20392;-73
2023/04/16 04:29:48;;;;;;;0.32;0.30;;;9.60;99.90;;;;;;5029933;28;20481;-73
2023/04/16 04:32:13;;;;;;;0.85;0.85;;;9.60;99.90;;;;;;5033571;28;20374;-73
2023/04/16 04:34:39;;;;;;;1.98;0.70;;;9.40;99.90;;;;;;5027551;28;20033;-73
2023/04/16 04:37:06;;;;;;;0.20;0.20;;;9.50;99.90;;;;;;5036103;28;20025;-73
2023/04/16 04:39:32;;;;;;;0.10;0.10;;;9.40;99.90;;;;;;5054444;28;20056;-73
2023/04/16 04:41:58;;;;;;;0.35;0.35;;;9.40;99.90;;;;;;5033840;28;20056;-73
2023/04/16 04:44:24;;;;;;;3.85;1.65;;;9.40;99.90;;;;;;5036903;28;20027;-72
2023/04/16 04:46:50;;;;;;;0.10;0.10;;;9.30;99.90;;;;;;5033373;28;20022;-72
2023/04/16 04:49:18;;;;;;;0.10;0.10;;;9.30;99.90;;;;;;5035644;28;20024;-72
2023/04/16 04:51:44;;;;;;;0.10;0.10;;;9.30;99.90;;;;;;5033424;28;20038;-73
2023/04/16 04:54:10;;;;;;;0.25;0.25;;;9.50;99.90;;;;;;5033496;28;20430;-73
2023/04/16 04:56:35;;;;;;;0.10;0.10;;;9.40;99.90;;;;;;5033216;28;20079;-73
2023/04/16 04:59:01;;;;;;;0.10;0.10;;;9.40;99.90;;;;;;5049498;28;20021;-73
2023/04/16 05:01:27;;;;;;;1.15;0.75;;;9.40;99.90;;;;;;5033143;28;20029;-73
2023/04/16 05:03:53;;;;;;;0.60;0.60;;;9.40;99.90;;;;;;5047437;28;20025;-72
2023/04/16 05:06:18;;;;;;;0.45;0.45;;;9.40;99.90;;;;;;5054300;28;20039;-73
2023/04/16 05:08:44;;;;;;;0.10;0.10;;;9.40;99.90;;;;;;5032778;28;20026;-73
2023/04/16 05:11:10;;;;;;;0.22;0.22;;;9.30;99.90;;;;;;5051214;28;20066;-73
2023/04/16 05:13:36;;;;;;;0.90;0.90;;;9.30;99.90;;;;;;5054039;28;20039;-72
2023/04/16 05:16:01;;;;;;;2.08;0.80;;;9.40;99.90;;;;;;5033667;28;20029;-73
2023/04/16 05:18:27;;;;;;;0.10;0.10;;;9.50;99.90;;;;;;5054111;28;20527;-72
2023/04/16 05:20:53;;;;;;;1.08;0.93;;;9.60;99.90;;;;;;5054266;28;20037;-73
2023/04/16 05:23:19;;;;;;;0.30;0.30;;;9.70;99.90;;;;;;5053800;28;20025;-73
2023/04/16 05:25:44;;;;;;;0.68;0.68;;;9.60;99.90;;;;;;5053971;28;20025;-73
2023/04/16 05:28:10;;;;;;;3.40;1.00;;;9.70;99.90;;;;;;5053565;28;20115;-71
2023/04/16 05:30:36;;;;;;;3.75;0.80;;;9.50;99.90;;;;;;5053757;28;20103;-71
2023/04/16 05:33:01;;;;;;;0.10;0.10;;;9.50;99.90;;;;;;5035869;28;20150;-71
2023/04/16 05:35:27;;;;;;;0.20;0.20;;;9.50;99.90;;;;;;5053546;28;20021;-71
2023/04/16 05:37:53;;;;;;;0.20;0.20;;;9.40;99.90;;;;;;5053100;28;20374;-71
2023/04/16 05:40:19;;;;;;;1.05;0.45;;;9.50;99.90;;;;;;5052729;28;20039;-72
2023/04/16 05:42:44;;;;;;;0.10;0.10;;;9.40;99.90;;;;;;5053050;28;20102;-71
2023/04/16 05:45:10;;;;;;;0.73;0.73;;;9.40;99.90;;;;;;5032385;28;20032;-72
2023/04/16 05:47:36;;;;;;;1.13;0.73;;;9.30;99.90;;;;;;5051050;28;20039;-71
2023/04/16 05:50:02;;;;;;;0.10;0.10;;;9.40;99.90;;;;;;5032048;28;20033;-71
2023/04/16 05:52:28;;;;;;;1.42;0.68;;;9.40;99.90;;;;;;5032706;28;20017;-71
2023/04/16 05:54:53;;;;;;;0.15;0.15;;;9.40;99.90;;;;;;5053514;28;20536;-71
2023/04/16 05:57:19;;;;;;;0.30;0.30;;;9.30;99.90;;;;;;5050472;28;20029;-71
2023/04/16 05:59:45;;;;;;;2.65;1.63;;;9.40;99.90;;;;;;5049535;28;20551;-71
2023/04/16 06:02:11;;;;;;;2.63;0.75;;;9.40;99.90;;;;;;5054604;28;20036;-71
2023/04/16 06:04:36;;;;;;;0.80;0.68;;;9.20;99.90;;;;;;5035913;28;20033;-72
2023/04/16 06:07:02;;;;;;;1.08;0.43;;;9.10;99.90;;;;;;5054388;28;20029;-72
2023/04/16 06:09:29;;;;;;;3.53;1.83;;;9.30;99.90;;;;;;5057221;28;20043;-72
2023/04/16 06:11:55;;;;;;;6.55;0.95;;;9.30;99.90;;;;;;5059582;28;20036;-72
2023/04/16 06:14:21;;;;;;;0.40;0.40;;;9.20;99.90;;;;;;5057051;28;20032;-71
2023/04/16 06:16:46;;;;;;;0.30;0.30;;;9.30;99.90;;;;;;5054649;28;20027;-72
2023/04/16 06:19:12;;;;;;;0.82;0.82;;;9.30;99.90;;;;;;5061479;28;20029;-71
2023/04/16 06:21:38;;;;;;;3.92;1.45;;;9.20;99.90;;;;;;5054390;28;20436;-72
2023/04/16 06:24:04;;;;;;;8.73;1.63;;;9.10;99.90;;;;;;5054135;28;20021;-72
2023/04/16 06:26:30;;;;;;;1.40;0.82;;;9.10;99.90;;;;;;5034774;28;20485;-71
2023/04/16 06:28:56;;;;;;;0.30;0.30;;;9.20;99.90;;;;;;5056367;28;20029;-72
2023/04/16 06:31:21;;;;;;;4.85;1.45;;;9.30;99.90;;;;;;5047395;28;20150;-73
2023/04/16 06:33:47;;;;;;;6.68;2.78;;;9.20;99.90;;;;;;5058938;28;20028;-73
2023/04/16 06:36:13;;;;;;;2.72;0.77;;;9.20;99.90;;;;;;5054172;28;20052;-74
2023/04/16 06:38:38;;;;;;;0.85;0.52;;;9.40;99.90;;;;;;5047745;28;20107;-74
2023/04/16 06:41:04;;;;;;;7.80;2.88;;;9.30;99.90;;;;;;5063257;28;20041;-73
2023/04/16 06:43:32;;;;;;;0.55;0.55;;;9.10;99.90;;;;;;5043917;28;20154;-73
2023/04/16 06:45:58;;;;;;;12.25;1.70;;;9.10;99.90;;;;;;5054073;28;20416;-74
2023/04/16 06:48:24;;;;;;;1.38;0.85;;;9.10;99.90;;;;;;5030071;28;20025;-74
2023/04/16 06:50:50;;;;;;;6.43;2.60;;;9.20;99.90;;;;;;5044028;28;20094;-73
2023/04/16 06:53:16;;;;;;;1.42;0.40;;;9.20;99.90;;;;;;5064313;28;20021;-73
2023/04/16 06:55:41;;;;;;;0.10;0.10;;;9.20;99.90;;;;;;5058579;28;20084;-73
2023/04/16 06:58:07;;;;;;;0.45;0.40;;;9.30;99.90;;;;;;5045792;28;20044;-74
2023/04/16 07:00:33;;;;;;;1.65;1.55;;;9.30;99.90;;;;;;5046507;28;20079;-72
2023/04/16 07:03:00;;;;;;;0.90;0.75;;;9.30;99.90;;;;;;5064822;28;20026;-74
2023/04/16 07:05:26;;;;;;;2.38;1.20;;;9.30;99.90;;;;;;5059688;28;20028;-72
2023/04/16 07:07:51;;;;;;;0.90;0.60;;;9.40;99.90;;;;;;5055973;28;20021;-73
2023/04/16 07:10:17;;;;;;;1.45;1.08;;;9.30;99.90;;;;;;5053746;28;20017;-74
2023/04/16 07:12:43;;;;;;;0.90;0.85;;;9.30;99.90;;;;;;5036414;28;20029;-72
2023/04/16 07:15:09;;;;;;;2.53;1.70;;;9.30;99.90;;;;;;5037703;28;20021;-71
2023/04/16 07:17:35;;;;;;;6.80;0.77;;;9.20;99.90;;;;;;5063079;28;20046;-74
2023/04/16 07:20:01;;;;;;;0.10;0.10;;;9.20;99.90;;;;;;5037722;28;20037;-71
2023/04/16 07:22:27;;;;;;;1.00;0.95;;;9.20;99.90;;;;;;5052530;28;20120;-73
2023/04/16 07:24:52;;;;;;;0.15;0.15;;;9.30;99.90;;;;;;5054626;28;20036;-71
2023/04/16 07:27:18;;;;;;;0.10;0.10;;;9.40;99.90;;;;;;5054867;28;20028;-74
2023/04/16 07:29:49;;;;;;;0.10;0.10;;;9.50;99.90;;;;;;5058811;28;20024;-73
2023/04/16 07:32:15;;;;;;;3.17;1.10;;;9.50;99.90;;;;;;5057618;28;20172;-73
2023/04/16 07:34:40;;;;;;;0.10;0.10;;;9.50;99.90;;;;;;5053825;28;20029;-74
2023/04/16 07:37:07;;;;;;;3.58;1.08;;;9.50;99.90;;;;;;5055637;28;20024;-71
2023/04/16 07:39:32;;;;;;;0.77;0.77;;;9.60;99.90;;;;;;5054906;28;20032;-72
2023/04/16 07:41:58;;;;;;;4.47;1.27;;;9.50;99.90;;;;;;5053545;28;20401;-73
2023/04/16 07:44:24;;;;;;;0.55;0.55;;;9.50;99.90;;;;;;5057411;28;20053;-74
2023/04/16 07:46:50;;;;;;;3.13;1.73;;;9.50;99.90;;;;;;5051523;28;20025;-73
2023/04/16 07:49:15;;;;;;;16.63;6.10;;;9.50;99.90;;;;;;5055635;28;20539;-74
2023/04/16 07:51:41;;;;;;;2.83;1.55;;;9.50;99.90;;;;;;5051135;28;20056;-71
2023/04/16 07:54:07;;;;;;;0.95;0.93;;;9.40;99.90;;;;;;5059117;28;20032;-70
2023/04/16 07:56:33;;;;;;;3.15;1.10;;;9.50;99.90;;;;;;5056602;28;20056;-71
2023/04/16 07:58:58;;;;;;;2.47;1.60;;;9.40;99.90;;;;;;5054330;28;20029;-71
2023/04/16 08:01:24;;;;;;;5.47;1.65;;;9.20;99.90;;;;;;5058842;28;20094;-73
2023/04/16 08:03:50;;;;;;;0.88;0.88;;;9.20;99.90;;;;;;5067269;28;20044;-73
2023/04/16 08:06:16;;;;;;;0.10;0.10;;;9.20;99.90;;;;;;5053992;28;20032;-73
2023/04/16 08:08:42;;;;;;;0.40;0.40;;;9.30;99.90;;;;;;5054957;28;20021;-73
2023/04/16 08:11:08;;;;;;;0.68;0.55;;;9.40;99.90;;;;;;5059196;28;20031;-74
2023/04/16 08:13:33;;;;;;;0.10;0.10;;;9.60;99.90;;;;;;5062604;28;20032;-73
2023/04/16 08:15:59;;;;;;;0.65;0.57;;;9.60;99.90;;;;;;5054887;28;20029;-73
2023/04/16 08:18:25;;;;;;;0.30;0.30;;;9.70;99.90;;;;;;5060902;28;20028;-73
2023/04/16 08:20:51;;;;;;;3.10;1.65;;;9.80;99.90;;;;;;5037861;28;20029;-73
2023/04/16 08:23:17;;;;;;;0.20;0.20;;;9.70;99.90;;;;;;5044518;28;20039;-73
2023/04/16 08:25:43;;;;;;;0.50;0.50;;;9.70;99.90;;;;;;5054935;28;20025;-73
2023/04/16 08:28:08;;;;;;;1.15;1.08;;;9.70;99.90;;;;;;5040765;28;20058;-74
2023/04/16 08:30:34;;;;;;;0.52;0.52;;;9.70;99.90;;;;;;5060435;28;20033;-74
2023/04/16 08:33:00;;;;;;;0.20;0.20;;;9.70;99.90;;;;;;5057297;28;20096;-73
2023/04/16 08:35:26;;;;;;;0.75;0.63;;;9.90;99.90;;;;;;5037753;28;20102;-73
2023/04/16 08:37:52;;;;;;;2.25;0.73;;;9.90;99.90;;;;;;5026335;28;20017;-74
2023/04/16 08:40:18;;;;;;;1.13;0.98;;;9.90;99.90;;;;;;5046414;28;20034;-74
2023/04/16 08:42:52;;;;;;;0.10;0.10;;;9.90;99.90;;;;;;5053726;28;20035;-73
2023/04/16 08:45:18;;;;;;;1.13;0.80;;;9.80;99.90;;;;;;5050771;28;20082;-74
2023/04/16 08:47:49;;;;;;;2.05;0.90;;;9.90;99.90;;;;;;5054219;28;20037;-74
2023/04/16 08:50:17;;;;;;;0.45;0.45;;;9.80;99.90;;;;;;5057309;28;20053;-74
2023/04/16 08:52:49;;;;;;;0.65;0.65;;;9.80;99.90;;;;;;5061575;28;20033;-71
2023/04/16 08:55:37;;;;;;;0.68;0.68;;;9.90;99.90;;;;;;5050376;28;20074;-74
2023/04/16 08:58:12;;;;;;;0.10;0.10;;;9.80;99.90;;;;;;5047836;28;20043;-74
2023/04/16 09:00:42;;;;;;;0.73;0.73;;;10.00;99.90;;;;;;5053783;28;20028;-74
2023/04/16 09:03:08;;;;;;;1.30;1.25;;;9.90;99.90;;;;;;5059971;28;20107;-74
2023/04/16 09:05:34;;;;;;;0.30;0.30;;;9.90;99.90;;;;;;5050885;28;20047;-74
2023/04/16 09:08:00;;;;;;;1.55;1.45;;;9.90;99.90;;;;;;5047796;28;20474;-73
2023/04/16 09:10:26;;;;;;;2.55;1.00;;;9.90;99.90;;;;;;5049756;28;20026;-72
2023/04/16 09:12:55;;;;;;;1.35;0.95;;;10.00;99.90;;;;;;5056046;28;20052;-72
2023/04/16 09:15:22;;;;;;;3.38;1.10;;;10.00;99.90;;;;;;5054648;28;20528;-74
2023/04/16 09:17:47;;;;;;;0.20;0.20;;;10.10;99.90;;;;;;5058979;28;20103;-71
2023/04/16 09:20:14;;;;;;;2.47;1.15;;;10.00;99.90;;;;;;5057157;28;20112;-72
2023/04/16 09:22:40;;;;;;;0.22;0.22;;;10.10;99.90;;;;;;5054188;28;20041;-72
2023/04/16 09:25:07;;;;;;;3.28;0.50;;;10.10;99.90;;;;;;5056535;28;20028;-74
2023/04/16 09:27:33;;;;;;;0.22;0.22;;;10.00;99.90;;;;;;5056564;28;20146;-72
2023/04/16 09:29:58;;;;;;;0.30;0.30;;;10.10;99.90;;;;;;5062721;28;20118;-72
2023/04/16 09:32:28;;;;;;;9.20;3.47;;;10.00;99.90;;;;;;5060070;28;20439;-74
2023/04/16 09:34:56;;;;;;;1.00;0.30;;;10.00;99.90;;;;;;5058559;28;20181;-73
2023/04/16 09:37:23;;;;;;;0.25;0.25;;;10.00;99.90;;;;;;5058410;28;20036;-74
2023/04/16 09:40:00;;;;;;;2.33;1.17;;;10.30;99.90;;;;;;5053026;28;20033;-74
2023/04/16 09:42:28;;;;;;;0.75;0.75;;;10.50;99.90;;;;;;5050966;28;20048;-74
2023/04/16 09:44:55;;;;;;;2.58;2.47;;;10.50;99.90;;;;;;5059420;28;20024;-74
2023/04/16 09:47:21;;;;;;;0.40;0.40;;;10.40;99.90;;;;;;5055680;28;20424;-73
2023/04/16 09:49:48;;;;;;;0.82;0.75;;;10.30;99.90;;;;;;5057103;28;20458;-73
2023/04/16 09:52:19;;;;;;;2.08;0.60;;;10.30;99.90;;;;;;5054682;28;20517;-73
2023/04/16 09:54:46;;;;;;;;;;;10.40;99.90;;;;;;5059560;28;20072;-74
2023/04/16 09:57:11;;;;;;;4.88;1.70;;;10.30;99.90;;;;;;5060880;28;20401;-73
2023/04/16 09:59:37;;;;;;;15.57;7.53;;;10.20;99.90;;;;;;5052440;28;20122;-73
2023/04/16 10:02:03;;;;;;;11.88;3.33;;;10.10;99.90;;;;;;5055990;28;20036;-73
2023/04/16 10:04:29;;;;;;;9.30;4.65;;;10.10;99.90;;;;;;5052037;28;20032;-73
2023/04/16 10:07:05;;;;;;;1.63;1.52;;;10.20;99.90;;;;;;5057453;28;20128;-73
2023/04/16 10:09:32;;;;;;;1.83;1.33;;;10.20;99.90;;;;;;5051105;28;20025;-73
2023/04/16 10:11:58;;;;;;;1.15;1.05;;;10.20;99.90;;;;;;5051723;28;20037;-74
2023/04/16 10:14:24;;;;;;;0.80;0.80;;;10.40;99.90;;;;;;5051700;28;20021;-73
2023/04/16 10:16:50;;;;;;;0.15;0.15;;;10.40;99.90;;;;;;5047699;28;21343;-73
2023/04/16 10:19:16;;;;;;;0.30;0.30;;;10.40;99.90;;;;;;5052961;28;20036;-73
2023/04/16 10:21:42;;;;;;;2.63;1.00;;;10.40;99.90;;;;;;5050975;28;20040;-73
2023/04/16 10:24:08;;;;;;;0.38;0.38;;;10.40;99.90;;;;;;5059688;28;20517;-74
2023/04/16 10:26:35;;;;;;;4.50;1.83;;;10.40;99.90;;;;;;5067211;28;20488;-73
2023/04/16 10:29:01;;;;;;;0.40;0.40;;;10.40;99.90;;;;;;5052325;28;20037;-73
2023/04/16 10:31:27;;;;;;;0.20;0.20;;;10.50;99.90;;;;;;5052566;28;20025;-74
2023/04/16 10:33:55;;;;;;;11.48;1.13;;;10.30;99.90;;;;;;5052491;28;20355;-73
2023/04/16 10:36:25;;;;;;;0.30;0.30;;;10.40;99.90;;;;;;5047988;28;20037;-73
2023/04/16 10:38:51;;;;;;;26.42;11.15;;;10.40;99.90;;;;;;5049040;28;20473;-73
2023/04/16 10:41:20;;;;;;;3.03;2.05;;;10.60;99.90;;;;;;5052157;28;20067;-74
2023/04/16 10:43:48;;;;;;;2.20;2.00;;;10.50;99.90;;;;;;5052546;28;20132;-73
2023/04/16 10:46:33;;;;;;;0.55;0.55;;;10.50;99.90;;;;;;5052055;28;20027;-73
2023/04/16 10:49:11;;;;;;;0.68;0.68;;;10.50;99.90;;;;;;5052309;28;20038;-73
2023/04/16 10:51:37;;;;;;;0.52;0.52;;;10.40;99.90;;;;;;5034382;28;20033;-75
2023/04/16 10:54:19;;;;;;;1.15;1.05;;;10.20;99.90;;;;;;5052178;28;20028;-72
2023/04/16 10:56:46;;;;;;;0.40;0.40;;;10.40;99.90;;;;;;5051999;28;20021;-72
2023/04/16 10:59:12;;;;;;;0.85;0.85;;;10.40;99.90;;;;;;5032318;28;20481;-73
2023/04/16 11:01:46;;;;;;;0.40;0.40;;;10.30;99.90;;;;;;5051907;28;20032;-73
2023/04/16 11:04:21;;;;;;;0.77;0.65;;;10.20;99.90;;;;;;5052159;28;20026;-73
2023/04/16 11:07:08;;;;;;;0.32;0.32;;;10.40;99.90;;;;;;5052076;28;20028;-73
2023/04/16 11:09:52;;;;;;;1.13;0.52;;;10.50;99.90;;;;;;5051510;28;20017;-73
2023/04/16 11:12:23;;;;;;;0.55;0.55;;;10.60;99.90;;;;;;5052157;28;20029;-73
2023/04/16 11:14:54;;;;;;;0.95;0.80;;;10.70;99.90;;;;;;5051933;28;20044;-73
2023/04/16 11:17:20;;;;;;;0.30;0.30;;;10.60;99.90;;;;;;5052117;28;20120;-73
2023/04/16 11:19:46;;;;;;;0.30;0.30;;;10.50;99.90;;;;;;5034185;28;20033;-73
2023/04/16 11:22:16;;;;;;;0.13;0.13;;;10.40;99.90;;;;;;5051977;28;20099;-73
2023/04/16 11:24:43;;;;;;;0.28;0.28;;;10.30;99.90;;;;;;5051962;28;20025;-72
2023/04/16 11:27:14;;;;;;;0.30;0.30;;;10.50;99.90;;;;;;5033963;28;20094;-73
2023/04/16 11:29:41;;;;;;;0.10;0.10;;;10.60;99.90;;;;;;5052507;28;20033;-73
2023/04/16 11:32:07;;;;;;;5.55;0.85;;;10.70;99.90;;;;;;5051932;28;20025;-73
2023/04/16 11:34:32;;;;;;;0.22;0.22;;;10.70;99.90;;;;;;5054393;28;20013;-72
2023/04/16 11:36:58;;;;;;;6.45;1.00;;;10.80;99.90;;;;;;5055633;28;20436;-72
2023/04/16 11:39:24;;;;;;;0.85;0.60;;;10.90;99.90;;;;;;5055475;28;20068;-73
2023/04/16 11:41:51;;;;;;;4.57;0.70;;;10.80;99.90;;;;;;5034603;28;20052;-73
2023/04/16 11:44:21;;;;;;;0.50;0.50;;;10.70;99.90;;;;;;5055641;28;20036;-73
2023/04/16 11:46:47;;;;;;;0.40;0.40;;;10.70;99.90;;;;;;5055740;28;20043;-73
2023/04/16 11:49:14;;;;;;;0.13;0.13;;;10.40;99.90;;;;;;5055624;28;20012;-72
2023/04/16 11:51:44;;;;;;;0.45;0.45;;;10.50;99.90;;;;;;5055534;28;20087;-73
2023/04/16 11:54:21;;;;;;;0.20;0.20;;;10.70;99.90;;;;;;5055403;28;20035;-73
2023/04/16 11:56:49;;;;;;;1.50;1.25;;;11.00;99.90;;;;;;5055536;28;20377;-73
2023/04/16 11:59:22;;;;;;;0.28;0.28;;;11.20;99.90;;;;;;5055601;28;20036;-73
2023/04/16 12:01:51;;;;;;;2.22;1.95;;;11.30;99.90;;;;;;5055205;28;20037;-73
2023/04/16 12:04:23;;;;;;;9.13;1.75;;;11.10;99.90;;;;;;5055376;28;20079;-72
2023/04/16 12:07:12;;;;;;;0.73;0.52;;;10.60;99.90;;;;;;5054952;28;20037;-72
2023/04/16 12:09:40;;;;;;;0.47;0.47;;;10.80;99.90;;;;;;5037250;28;20079;-73
2023/04/16 12:12:26;;;;;;;0.20;0.20;;;11.00;99.90;;;;;;5053489;28;20025;-71
2023/04/16 12:14:53;;;;;;;0.10;0.10;;;11.00;99.90;;;;;;5045695;28;20466;-71
2023/04/16 12:17:22;;;;;;;0.43;0.43;;;11.20;99.90;;;;;;5055162;28;20127;-71
2023/04/16 12:19:59;;;;;;;2.38;0.57;;;11.50;99.90;;;;;;5033814;28;20098;-71
2023/04/16 12:22:34;;;;;;;0.25;0.25;;;11.50;99.90;;;;;;5028622;28;20553;-71
2023/04/16 12:25:09;;;;;;;0.20;0.20;;;11.50;99.90;;;;;;5054978;28;20413;-72
2023/04/16 12:27:45;;;;;;;0.28;0.28;;;11.50;99.90;;;;;;5055036;28;20027;-71
2023/04/16 12:30:12;;;;;;;3.25;0.85;;;11.40;99.90;;;;;;5054999;28;20029;-71
2023/04/16 12:32:38;;;;;;;3.10;1.27;;;11.60;99.90;;;;;;5054994;28;20647;-71
2023/04/16 12:35:04;;;;;;;2.88;2.65;;;11.50;99.90;;;;;;5054900;28;20377;-72
2023/04/16 12:37:30;;;;;;;0.40;0.40;;;11.10;99.90;;;;;;5054137;28;20025;-71
2023/04/16 12:39:56;;;;;;;1.98;1.10;;;11.10;99.90;;;;;;5043289;28;20041;-72
2023/04/16 12:42:22;;;;;;;2.88;2.40;;;11.20;99.90;;;;;;5051217;28;20032;-71
2023/04/16 12:44:47;;;;;;;3.80;2.42;;;11.60;99.90;;;;;;5054633;28;20107;-72
2023/04/16 12:47:13;;;;;;;2.67;1.55;;;11.40;99.90;;;;;;5053817;28;20035;-72
2023/04/16 12:49:39;;;;;;;5.38;0.55;;;11.10;99.90;;;;;;5054719;28;20114;-72
2023/04/16 12:52:05;;;;;;;1.05;0.95;;;10.90;99.90;;;;;;5054086;28;20052;-71
2023/04/16 12:54:31;;;;;;;0.60;0.60;;;11.30;99.90;;;;;;5054689;28;20362;-71